首页
METAR-TAF:

METAR-TAF

机场 :

富圖納機場

富图纳, 法国

纬度: 14-19S, 经度: 178-07W, 海拔: 6米

METAR: 丢失

时间: 03:43 (15:43 UTC)

预报

该预报发布于4小时和43分钟前的11:00 UTC
预报有效从17日的 12点(UTC)到 18日的 12点(UTC)
风速10节,风向
能见度10公里或以上
散云层高于2000英尺
多云层高于3000英尺
多云层高于4000英尺
几率 30% :
短暂存在
从 17日的 12点(UTC)到 17日的 18点(UTC)
多云层高于1400英尺
阵雨,

TAF: NLWF 171100Z 1712/1812 09010KT 9999 SCT020 BKN030 BKN040 PROB30 TEMPO 1712/1718 SHRA BKN014

超过4000个机场的气象观测和天气预报(METAR&TAF报告)。

可查询的气象台以黄色和红色小点在地图上表示。

将鼠标移到小点上方,可查看气象台名称。

然后点击查看天气观测和预报。

如需切换地图:点击带黑十字的绿色按钮放大地图;点击带横线的绿色按钮缩小地图;或者点击绿色箭头查看邻近地区的地图。


METAR-TAF: